createdAt,value
2022-09-21T00:01:16.009Z,6.48
2022-09-21T00:03:44.903Z,6.45
2022-09-21T00:06:14.963Z,6.44
2022-09-21T00:08:43.014Z,6.30
2022-09-21T00:11:13.996Z,6.27
2022-09-21T00:13:42.240Z,6.32
2022-09-21T00:16:11.529Z,6.35
2022-09-21T00:18:39.354Z,6.24
2022-09-21T00:21:11.943Z,6.20
2022-09-21T00:23:40.684Z,6.12
2022-09-21T00:26:10.321Z,6.17
2022-09-21T00:28:38.696Z,5.98
2022-09-21T00:31:08.200Z,5.95
2022-09-21T00:33:37.532Z,6.00
2022-09-21T00:36:06.432Z,5.91
2022-09-21T00:38:35.535Z,5.95
2022-09-21T00:41:03.538Z,5.95
2022-09-21T00:43:34.547Z,5.92
2022-09-21T00:46:06.263Z,5.86
2022-09-21T00:48:34.972Z,5.87
2022-09-21T00:51:09.000Z,5.92
2022-09-21T00:53:38.945Z,5.91
2022-09-21T00:56:07.918Z,5.94
2022-09-21T00:58:41.773Z,5.97
2022-09-21T01:01:11.120Z,6.06
2022-09-21T01:03:40.426Z,5.98
2022-09-21T01:06:09.617Z,5.99
2022-09-21T01:08:37.854Z,5.96
2022-09-21T01:11:19.279Z,6.01
2022-09-21T01:14:00.698Z,6.03
2022-09-21T01:16:35.999Z,6.08
2022-09-21T01:19:11.670Z,6.06
2022-09-21T01:21:53.910Z,5.97
2022-09-21T01:24:37.534Z,5.93
2022-09-21T01:27:37.931Z,5.86
2022-09-21T01:30:10.509Z,5.94
2022-09-21T01:32:43.207Z,5.89
2022-09-21T01:35:15.801Z,5.84
2022-09-21T01:37:48.313Z,5.80
2022-09-21T01:40:21.689Z,5.94
2022-09-21T01:42:51.432Z,5.95
2022-09-21T01:45:27.020Z,5.86
2022-09-21T01:47:58.299Z,5.89
2022-09-21T01:50:29.319Z,5.90
2022-09-21T01:53:02.704Z,5.94
2022-09-21T01:55:36.029Z,6.01
2022-09-21T01:58:10.734Z,6.14
2022-09-21T02:00:42.381Z,5.99
2022-09-21T02:03:15.257Z,5.63
2022-09-21T02:05:43.640Z,5.72
2022-09-21T02:08:12.289Z,5.79
2022-09-21T02:10:46.220Z,5.68
2022-09-21T02:13:16.727Z,5.86
2022-09-21T02:16:03.493Z,5.81
2022-09-21T02:18:42.157Z,5.72
2022-09-21T02:21:17.411Z,5.65
2022-09-21T02:23:54.275Z,5.85
2022-09-21T02:26:29.063Z,5.92
2022-09-21T02:29:07.554Z,5.69
2022-09-21T02:31:43.730Z,5.44
2022-09-21T02:34:20.208Z,5.43
2022-09-21T02:36:51.103Z,5.38
2022-09-21T02:39:22.689Z,5.20
2022-09-21T02:42:01.834Z,5.35
2022-09-21T02:44:33.835Z,5.47
2022-09-21T02:47:09.975Z,5.31
2022-09-21T02:49:42.917Z,5.23
2022-09-21T02:52:14.630Z,5.27
2022-09-21T02:54:47.235Z,5.21
2022-09-21T02:57:17.160Z,5.24
2022-09-21T02:59:45.289Z,4.87
2022-09-21T03:02:14.847Z,5.02
2022-09-21T03:04:47.207Z,5.08
2022-09-21T03:07:15.527Z,4.98
2022-09-21T03:09:43.502Z,5.06
2022-09-21T03:12:11.648Z,5.02
2022-09-21T03:14:39.454Z,5.12
2022-09-21T03:17:07.311Z,5.38
2022-09-21T03:19:36.493Z,5.38
2022-09-21T03:22:04.519Z,5.33
2022-09-21T03:24:47.369Z,5.54
2022-09-21T03:27:15.574Z,5.51
2022-09-21T03:29:43.391Z,5.55
2022-09-21T03:32:11.527Z,5.53
2022-09-21T03:34:40.872Z,5.56
2022-09-21T03:37:10.246Z,5.36
2022-09-21T03:39:38.061Z,5.70
2022-09-21T03:42:05.988Z,5.62
2022-09-21T03:44:33.853Z,5.89
2022-09-21T03:47:01.638Z,5.91
2022-09-21T03:49:29.545Z,5.89
2022-09-21T03:51:59.572Z,5.71
2022-09-21T03:54:27.391Z,5.72
2022-09-21T03:56:55.189Z,5.77
2022-09-21T03:59:22.997Z,5.57
2022-09-21T04:01:50.884Z,5.68
2022-09-21T04:04:18.661Z,5.61
2022-09-21T04:06:47.089Z,5.58
2022-09-21T04:09:16.319Z,5.52
2022-09-21T04:11:46.080Z,5.53
2022-09-21T04:14:14.136Z,5.54
2022-09-21T04:16:41.948Z,5.36
2022-09-21T04:19:09.831Z,5.61
2022-09-21T04:21:37.661Z,5.52
2022-09-21T04:24:06.202Z,5.41
2022-09-21T04:26:37.114Z,5.40
2022-09-21T04:29:05.440Z,5.27
2022-09-21T04:31:34.546Z,5.39
2022-09-21T04:34:02.321Z,5.60
2022-09-21T04:36:34.346Z,5.59
2022-09-21T04:39:05.706Z,5.71
2022-09-21T04:41:34.890Z,5.45
2022-09-21T04:44:03.175Z,5.67
2022-09-21T04:46:30.995Z,5.52
2022-09-21T04:48:58.848Z,5.51
2022-09-21T04:51:26.980Z,5.47
2022-09-21T04:53:54.959Z,5.54
2022-09-21T04:56:22.760Z,5.52
2022-09-21T04:58:51.898Z,5.53
2022-09-21T05:01:19.811Z,5.42
2022-09-21T05:03:47.693Z,5.37
2022-09-21T05:06:15.561Z,5.64
2022-09-21T05:09:01.014Z,5.79
2022-09-21T05:11:29.278Z,5.69
2022-09-21T05:13:58.454Z,5.49
2022-09-21T05:16:26.325Z,5.61
2022-09-21T05:18:55.926Z,5.63
2022-09-21T05:21:23.849Z,5.34
2022-09-21T05:23:52.140Z,5.33
2022-09-21T05:26:20.844Z,5.29
2022-09-21T05:28:49.238Z,5.45
2022-09-21T05:31:32.122Z,5.30
2022-09-21T05:34:06.575Z,5.56
2022-09-21T05:36:45.698Z,5.56
2022-09-21T05:39:13.939Z,5.45
2022-09-21T05:41:42.212Z,5.37
2022-09-21T05:44:14.362Z,5.47
2022-09-21T05:46:55.384Z,5.53
2022-09-21T05:49:34.461Z,5.60
2022-09-21T05:52:10.593Z,5.71
2022-09-21T05:54:53.536Z,5.69
2022-09-21T05:57:30.987Z,5.77
2022-09-21T06:00:08.655Z,5.67
2022-09-21T06:02:51.605Z,5.74
2022-09-21T06:05:20.253Z,5.68
2022-09-21T06:07:48.057Z,5.85
2022-09-21T06:10:16.387Z,5.92
2022-09-21T06:12:44.433Z,5.92
2022-09-21T06:15:14.845Z,6.08
2022-09-21T06:17:44.497Z,6.32
2022-09-21T06:20:12.389Z,6.22
2022-09-21T06:22:40.144Z,6.25
2022-09-21T06:25:09.085Z,6.11
2022-09-21T06:27:36.928Z,6.26
2022-09-21T06:30:05.463Z,6.47
2022-09-21T06:32:33.230Z,6.34
2022-09-21T06:35:02.413Z,6.19
2022-09-21T06:37:30.186Z,6.07
2022-09-21T06:39:58.014Z,6.11
2022-09-21T06:42:25.766Z,6.19
2022-09-21T06:44:53.582Z,6.30
2022-09-21T06:47:21.331Z,6.34
2022-09-21T06:49:49.096Z,6.53
2022-09-21T06:52:18.203Z,6.67
2022-09-21T06:54:46.035Z,6.87
2022-09-21T06:57:13.780Z,6.76
2022-09-21T06:59:41.586Z,6.80
2022-09-21T07:02:10.346Z,6.84
2022-09-21T07:04:38.464Z,6.94
2022-09-21T07:07:06.383Z,7.07
2022-09-21T07:12:23.605Z,6.98
2022-09-21T07:14:51.377Z,6.91
2022-09-21T07:17:19.509Z,7.18
2022-09-21T07:19:47.514Z,7.20
2022-09-21T07:22:15.273Z,7.00
2022-09-21T07:24:44.379Z,7.45
2022-09-21T07:27:12.169Z,7.53
2022-09-21T07:29:39.925Z,7.91
2022-09-21T07:32:07.725Z,7.83
2022-09-21T07:34:37.183Z,7.77
2022-09-21T07:37:04.991Z,7.98
2022-09-21T07:39:32.737Z,7.86
2022-09-21T07:42:01.922Z,7.70
2022-09-21T07:44:29.769Z,7.87
2022-09-21T07:46:57.754Z,7.91
2022-09-21T07:49:25.589Z,7.50
2022-09-21T07:51:54.365Z,7.96
2022-09-21T07:54:22.229Z,8.29
2022-09-21T07:57:03.872Z,8.56
2022-09-21T07:59:33.550Z,8.91
2022-09-21T08:02:01.385Z,8.60
2022-09-21T08:04:29.235Z,8.80
2022-09-21T08:06:57.069Z,9.05
2022-09-21T08:09:25.140Z,9.24
2022-09-21T08:11:53.102Z,9.02
2022-09-21T08:14:25.806Z,9.05
2022-09-21T08:16:55.604Z,9.86
2022-09-21T08:19:25.911Z,9.09
2022-09-21T08:21:57.596Z,9.47
2022-09-21T08:24:27.051Z,9.29
2022-09-21T08:26:55.961Z,9.65
2022-09-21T08:29:25.626Z,9.46
2022-09-21T08:31:55.290Z,9.82
2022-09-21T08:34:24.087Z,10.00
2022-09-21T08:36:55.206Z,9.72
2022-09-21T08:39:23.934Z,10.30
2022-09-21T08:42:11.788Z,9.52
2022-09-21T08:44:43.055Z,9.80
2022-09-21T08:47:16.955Z,10.21
2022-09-21T08:49:50.445Z,9.52
2022-09-21T08:52:20.546Z,8.88
2022-09-21T08:54:54.283Z,9.40
2022-09-21T08:57:24.217Z,9.51
2022-09-21T08:59:52.036Z,10.35
2022-09-21T09:02:35.609Z,10.19
2022-09-21T09:05:13.879Z,10.08
2022-09-21T09:08:03.097Z,10.98
2022-09-21T09:10:39.043Z,10.35
2022-09-21T09:13:36.486Z,11.54
2022-09-21T09:16:13.875Z,11.39
2022-09-21T09:18:48.288Z,11.66
2022-09-21T09:21:30.357Z,12.05
2022-09-21T09:24:04.207Z,12.42
2022-09-21T09:26:42.727Z,12.20
2022-09-21T09:29:19.930Z,11.86
2022-09-21T09:31:48.985Z,12.06
2022-09-21T09:34:22.826Z,12.73
2022-09-21T09:36:59.266Z,12.34
2022-09-21T09:39:30.677Z,12.80
2022-09-21T09:42:23.839Z,13.04
2022-09-21T09:45:13.831Z,13.65
2022-09-21T09:47:55.391Z,12.74
2022-09-21T09:50:29.035Z,13.53
2022-09-21T09:53:04.982Z,13.46
2022-09-21T09:55:39.060Z,12.64
2022-09-21T09:58:14.727Z,12.96
2022-09-21T10:00:42.863Z,13.41
2022-09-21T10:03:18.548Z,13.38
2022-09-21T10:05:48.036Z,14.01
2022-09-21T10:08:41.998Z,14.04
2022-09-21T10:11:10.953Z,14.30
2022-09-21T10:13:40.510Z,14.89
2022-09-21T10:16:14.567Z,15.29
2022-09-21T10:18:48.203Z,14.52
2022-09-21T10:21:21.503Z,13.50
2022-09-21T10:23:51.700Z,14.15
2022-09-21T10:26:20.835Z,14.61
2022-09-21T10:28:59.839Z,14.46
2022-09-21T10:31:30.010Z,14.29
2022-09-21T10:34:13.091Z,15.04
2022-09-21T10:36:43.149Z,15.90
2022-09-21T10:39:23.158Z,15.54
2022-09-21T10:41:53.253Z,15.69
2022-09-21T10:44:23.450Z,16.54
2022-09-21T10:46:52.186Z,15.90
2022-09-21T10:49:26.598Z,15.55
2022-09-21T10:51:59.244Z,16.08
2022-09-21T10:54:30.487Z,16.17
2022-09-21T10:57:02.327Z,16.95
2022-09-21T10:59:31.706Z,15.81
2022-09-21T11:02:01.667Z,15.83
2022-09-21T11:04:35.723Z,15.60
2022-09-21T11:07:14.874Z,17.19
2022-09-21T11:09:50.314Z,17.57
2022-09-21T11:12:36.882Z,17.58
2022-09-21T11:15:16.831Z,17.49
2022-09-21T11:17:50.809Z,16.61
2022-09-21T11:20:29.285Z,16.49
2022-09-21T11:23:04.758Z,17.48
2022-09-21T11:25:38.143Z,17.02
2022-09-21T11:28:20.612Z,17.62
2022-09-21T11:31:13.453Z,18.07
2022-09-21T11:33:56.500Z,18.41
2022-09-21T11:36:38.350Z,18.53
2022-09-21T11:39:15.490Z,19.39
2022-09-21T11:42:00.413Z,18.61
2022-09-21T11:44:47.682Z,19.40
2022-09-21T11:47:26.778Z,17.63
2022-09-21T11:50:31.487Z,19.53
2022-09-21T11:53:16.232Z,18.99
2022-09-21T11:56:06.724Z,20.14
2022-09-21T11:58:43.383Z,18.58
2022-09-21T12:01:26.773Z,19.52
2022-09-21T12:04:11.079Z,18.37
2022-09-21T12:06:47.661Z,17.81
2022-09-21T12:09:31.692Z,20.06
2022-09-21T12:12:11.431Z,20.00
2022-09-21T12:14:46.457Z,21.24
2022-09-21T12:17:23.416Z,21.29
2022-09-21T12:20:02.337Z,20.53
2022-09-21T12:22:33.558Z,21.31
2022-09-21T12:25:06.471Z,21.24
2022-09-21T12:27:40.396Z,19.70
2022-09-21T12:30:13.948Z,20.58
2022-09-21T12:32:53.202Z,20.99
2022-09-21T12:35:26.345Z,19.00
2022-09-21T12:38:00.799Z,20.63
2022-09-21T12:40:37.585Z,21.00
2022-09-21T12:43:17.354Z,22.16
2022-09-21T12:45:50.349Z,21.24
2022-09-21T12:48:27.903Z,20.16
2022-09-21T12:51:03.675Z,20.04
2022-09-21T12:53:37.911Z,19.83
2022-09-21T12:56:10.148Z,20.79
2022-09-21T12:59:05.638Z,20.71
2022-09-21T13:01:37.495Z,19.92
2022-09-21T13:04:25.749Z,19.70
2022-09-21T13:07:30.101Z,18.91
2022-09-21T13:09:58.687Z,20.99
2022-09-21T13:12:32.979Z,20.58
2022-09-21T13:15:06.432Z,21.54
2022-09-21T13:17:35.848Z,21.06
2022-09-21T13:20:06.612Z,20.61
2022-09-21T13:22:36.766Z,19.45
2022-09-21T13:25:09.364Z,19.91
2022-09-21T13:28:04.767Z,18.82
2022-09-21T13:30:37.821Z,20.47
2022-09-21T13:33:26.700Z,20.35
2022-09-21T13:36:09.591Z,20.81
2022-09-21T13:39:05.047Z,21.49
2022-09-21T13:41:58.986Z,20.86
2022-09-21T13:44:38.486Z,21.73
2022-09-21T13:47:10.159Z,21.52
2022-09-21T13:49:53.940Z,21.18
2022-09-21T13:52:31.219Z,21.07
2022-09-21T13:57:33.317Z,22.14
2022-09-21T14:00:23.298Z,22.34
2022-09-21T14:03:01.564Z,22.53
2022-09-21T14:05:35.723Z,22.99
2022-09-21T14:08:06.429Z,21.29
2022-09-21T14:10:38.382Z,20.71
2022-09-21T14:13:25.542Z,20.92
2022-09-21T14:15:53.412Z,20.92
2022-09-21T14:18:37.515Z,20.94
2022-09-21T14:21:19.142Z,21.22
2022-09-21T14:24:23.103Z,21.85
2022-09-21T14:27:01.561Z,21.82
2022-09-21T14:29:39.538Z,22.17
2022-09-21T14:32:17.103Z,21.63
2022-09-21T14:34:49.644Z,22.73
2022-09-21T14:37:28.986Z,20.47
2022-09-21T14:39:58.060Z,19.93
2022-09-21T14:42:29.212Z,19.78
2022-09-21T14:45:02.248Z,20.84
2022-09-21T14:47:43.699Z,19.39
2022-09-21T14:50:31.690Z,18.60
2022-09-21T14:53:17.255Z,19.03
2022-09-21T14:56:01.775Z,18.78
2022-09-21T14:58:44.795Z,17.90
2022-09-21T15:01:38.255Z,17.13
2022-09-21T15:04:31.615Z,17.09
2022-09-21T15:07:31.809Z,16.76
2022-09-21T15:10:38.450Z,16.45
2022-09-21T15:13:21.817Z,16.14
2022-09-21T15:16:03.084Z,15.79
2022-09-21T15:18:30.908Z,15.55
2022-09-21T15:21:01.805Z,15.86
2022-09-21T15:23:33.797Z,16.73
2022-09-21T15:26:05.414Z,17.70
2022-09-21T15:29:05.105Z,18.13
2022-09-21T15:31:34.089Z,19.00
2022-09-21T15:34:03.013Z,19.30
2022-09-21T15:36:31.571Z,18.51
2022-09-21T15:39:00.836Z,19.63
2022-09-21T15:41:40.664Z,19.74
2022-09-21T15:44:15.807Z,20.82
2022-09-21T15:46:46.799Z,20.74
2022-09-21T15:49:17.896Z,21.39
2022-09-21T15:51:46.427Z,22.92
2022-09-21T15:54:30.016Z,20.24
2022-09-21T15:56:58.138Z,19.38
2022-09-21T15:59:26.227Z,20.31
2022-09-21T16:01:57.614Z,19.57
2022-09-21T16:04:27.277Z,19.44
2022-09-21T16:07:06.012Z,20.95
2022-09-21T16:09:46.917Z,19.09
2022-09-21T16:12:38.269Z,18.85
2022-09-21T16:15:09.148Z,19.62
2022-09-21T16:17:40.649Z,20.50
2022-09-21T16:20:25.107Z,20.49
2022-09-21T16:23:06.239Z,20.49
2022-09-21T16:25:38.549Z,19.61
2022-09-21T16:28:29.778Z,19.79
2022-09-21T16:30:59.445Z,19.46
2022-09-21T16:33:41.210Z,19.57
2022-09-21T16:36:53.126Z,18.27
2022-09-21T16:39:23.988Z,18.97
2022-09-21T16:41:58.813Z,18.83
2022-09-21T16:44:32.241Z,17.95
2022-09-21T16:47:03.915Z,17.08
2022-09-21T16:49:36.545Z,16.88
2022-09-21T16:52:07.963Z,16.98
2022-09-21T16:54:37.745Z,15.93
2022-09-21T16:57:08.488Z,15.87
2022-09-21T16:59:36.814Z,15.38
2022-09-21T17:02:06.268Z,15.15
2022-09-21T17:04:37.201Z,14.97
2022-09-21T17:07:06.486Z,14.72
2022-09-21T17:09:40.985Z,14.51
2022-09-21T17:12:13.460Z,14.31
2022-09-21T17:14:47.511Z,14.33
2022-09-21T17:17:21.555Z,14.09
2022-09-21T17:19:51.491Z,13.95
2022-09-21T17:22:24.160Z,13.81
2022-09-21T17:24:54.960Z,13.70
2022-09-21T17:27:26.727Z,13.65
2022-09-21T17:29:56.675Z,13.51
2022-09-21T17:32:26.044Z,13.46
2022-09-21T17:35:00.237Z,13.45
2022-09-21T17:37:29.528Z,13.14
2022-09-21T17:39:57.402Z,13.12
2022-09-21T17:42:29.778Z,13.21
2022-09-21T17:45:13.225Z,13.12
2022-09-21T17:47:43.213Z,13.05
2022-09-21T17:50:25.929Z,12.90
2022-09-21T17:53:12.502Z,12.78
2022-09-21T17:55:45.331Z,12.49
2022-09-21T17:58:35.239Z,12.25
2022-09-21T18:01:08.600Z,12.07
2022-09-21T18:03:41.175Z,11.96
2022-09-21T18:06:10.682Z,11.84
2022-09-21T18:08:40.255Z,11.67
2022-09-21T18:11:21.738Z,11.56
2022-09-21T18:13:59.490Z,11.44
2022-09-21T18:16:33.824Z,11.34
2022-09-21T18:19:26.502Z,11.21
2022-09-21T18:22:04.436Z,11.16
2022-09-21T18:24:36.860Z,11.01
2022-09-21T18:27:05.295Z,10.99
2022-09-21T18:29:40.431Z,10.90
2022-09-21T18:32:32.263Z,10.80
2022-09-21T18:35:22.530Z,10.69
2022-09-21T18:38:02.915Z,10.61
2022-09-21T18:40:39.396Z,10.53
2022-09-21T18:43:22.775Z,10.44
2022-09-21T18:45:56.776Z,10.35
2022-09-21T18:48:39.732Z,10.40
2022-09-21T18:51:15.700Z,10.30
2022-09-21T18:53:48.191Z,10.21
2022-09-21T18:56:16.645Z,10.22
2022-09-21T18:58:45.220Z,10.22
2022-09-21T19:01:17.102Z,10.22
2022-09-21T19:03:45.917Z,10.13
2022-09-21T19:06:27.464Z,9.96
2022-09-21T19:09:03.716Z,9.84
2022-09-21T19:11:38.222Z,9.82
2022-09-21T19:14:16.384Z,9.80
2022-09-21T19:16:58.777Z,9.77
2022-09-21T19:19:37.015Z,9.78
2022-09-21T19:22:14.394Z,9.69
2022-09-21T19:24:56.175Z,9.60
2022-09-21T19:27:31.414Z,9.49
2022-09-21T19:30:05.475Z,9.40
2022-09-21T19:32:39.780Z,9.34
2022-09-21T19:35:19.050Z,9.27
2022-09-21T19:37:48.203Z,9.17
2022-09-21T19:40:17.309Z,9.14
2022-09-21T19:43:04.207Z,9.11
2022-09-21T19:45:42.796Z,9.07
2022-09-21T19:48:15.634Z,9.16
2022-09-21T19:50:48.167Z,8.94
2022-09-21T19:53:34.627Z,8.84
2022-09-21T19:56:21.247Z,8.83
2022-09-21T19:59:07.313Z,8.86
2022-09-21T20:01:40.862Z,8.84
2022-09-21T20:04:15.115Z,8.80
2022-09-21T20:06:49.099Z,8.72
2022-09-21T20:09:23.059Z,8.67
2022-09-21T20:11:57.396Z,8.57
2022-09-21T20:14:33.803Z,8.58
2022-09-21T20:17:08.656Z,8.51
2022-09-21T20:19:52.101Z,8.39
2022-09-21T20:22:27.395Z,8.45
2022-09-21T20:25:01.817Z,8.41
2022-09-21T20:27:36.504Z,8.33
2022-09-21T20:30:07.698Z,8.37
2022-09-21T20:32:36.802Z,8.31
2022-09-21T20:35:14.426Z,8.31
2022-09-21T20:37:42.530Z,8.24
2022-09-21T20:40:13.236Z,8.10
2022-09-21T20:42:41.922Z,8.05
2022-09-21T20:45:12.171Z,8.02
2022-09-21T20:47:40.906Z,7.94
2022-09-21T20:50:12.932Z,7.80
2022-09-21T20:52:41.839Z,7.82
2022-09-21T20:55:11.117Z,7.84
2022-09-21T20:57:39.673Z,7.84
2022-09-21T21:00:09.128Z,7.75
2022-09-21T21:02:37.009Z,7.68
2022-09-21T21:05:05.918Z,7.70
2022-09-21T21:07:36.487Z,7.68
2022-09-21T21:10:06.016Z,7.64
2022-09-21T21:12:33.790Z,7.54
2022-09-21T21:15:01.565Z,7.44
2022-09-21T21:17:29.723Z,7.39
2022-09-21T21:19:57.658Z,7.44
2022-09-21T21:22:25.438Z,7.34
2022-09-21T21:24:54.639Z,7.34
2022-09-21T21:27:25.665Z,7.33
2022-09-21T21:29:54.878Z,7.45
2022-09-21T21:32:25.342Z,7.43
2022-09-21T21:34:53.796Z,7.36
2022-09-21T21:37:24.521Z,7.23
2022-09-21T21:39:54.294Z,7.53
2022-09-21T21:42:24.775Z,7.25
2022-09-21T21:44:52.996Z,7.12
2022-09-21T21:47:38.613Z,7.12
2022-09-21T21:50:07.971Z,7.22
2022-09-21T21:52:36.119Z,7.06
2022-09-21T21:55:06.920Z,7.02
2022-09-21T21:57:35.455Z,6.92
2022-09-21T22:00:03.911Z,6.88
2022-09-21T22:02:32.684Z,6.95
2022-09-21T22:05:01.243Z,6.95
2022-09-21T22:07:29.038Z,6.82
2022-09-21T22:09:56.850Z,6.89
2022-09-21T22:12:26.220Z,6.82
2022-09-21T22:14:54.104Z,6.95
2022-09-21T22:17:22.080Z,6.88
2022-09-21T22:19:50.614Z,6.88
2022-09-21T22:22:18.490Z,6.80
2022-09-21T22:24:46.327Z,6.77
2022-09-21T22:27:14.089Z,6.64
2022-09-21T22:29:43.249Z,6.64
2022-09-21T22:32:11.171Z,6.62
2022-09-21T22:34:38.991Z,6.51
2022-09-21T22:37:06.959Z,6.57
2022-09-21T22:39:34.727Z,6.55
2022-09-21T22:42:02.501Z,6.46
2022-09-21T22:44:30.460Z,6.47
2022-09-21T22:46:59.610Z,6.42
2022-09-21T22:49:27.402Z,6.41
2022-09-21T22:51:55.190Z,6.42
2022-09-21T22:54:22.964Z,6.30
2022-09-21T22:56:50.756Z,6.39
2022-09-21T22:59:18.527Z,6.30
2022-09-21T23:01:46.724Z,6.19
2022-09-21T23:04:16.778Z,6.16
2022-09-21T23:06:46.123Z,6.20
2022-09-21T23:09:15.724Z,6.17
2022-09-21T23:11:47.425Z,6.22
2022-09-21T23:14:15.979Z,6.27
2022-09-21T23:16:44.166Z,6.21
2022-09-21T23:19:15.779Z,6.09
2022-09-21T23:21:46.693Z,6.14
2022-09-21T23:24:14.472Z,6.03
2022-09-21T23:26:42.653Z,6.05
2022-09-21T23:29:12.963Z,6.00
2022-09-21T23:31:44.690Z,5.99
2022-09-21T23:34:13.561Z,5.94
2022-09-21T23:36:42.386Z,5.90
2022-09-21T23:39:13.682Z,6.03
2022-09-21T23:41:41.887Z,5.84
2022-09-21T23:44:09.675Z,5.76
2022-09-21T23:46:38.944Z,5.75
2022-09-21T23:49:07.187Z,5.64
2022-09-21T23:51:35.506Z,5.63
2022-09-21T23:54:04.362Z,5.60
2022-09-21T23:56:34.130Z,5.63
2022-09-21T23:59:02.070Z,5.71
